Terminal Aerodrome Forecast
Issued by NWS Twin Cities, MN

Home | Current Version | Previous Version | Text Only | Print | Product List | Glossary Off
Versions: 1 2 3 4 5 6 7 8 9 10 11 12 13 14 15 16 17 18 19 20 21 22 23 24

000
FTUS43 KMPX 212000 AAA
TAFMSP
TAF AMD
KMSP 212049Z 2121/2224 04009KT P6SM BKN030
      TEMPO 2122/2202 6SM -SHRA BR SCT030 BKN050
     FM220400 VRB03KT 6SM BR SCT005
     FM220800 VRB03KT 4SM BR OVC004
      TEMPO 2209/2213 1SM BR OVC001
     FM221400 35007KT P6SM BKN012=

USA.gov is the U.S. government's official web portal to all federal, state and local government web resources and services.